Big Bend, West Virginia
Current Conditions -  °F | °C
As of 11:53 PM on Saturday 25 Oct 2014 (Local Time) from KPKB Reporting Station
Clear Clear  
Wind Chill: 60°   Ceiling: Unl
Heat Index: 60°   Visibility: 10mi
Dew Point: 54°   Wind: 7mph
Humidity: 80%   Direction: 270°W
Pressure: 29.9"   Gusts: NA
Location:  38.97°N, 81.16°W
Report Text: KPKB 260353Z AUTO 27006KT 10SM CLR 16/12 A2990 RMK AO2 SLP121 T01560122
Loading
Personal Weather Stations






























Interactive Weather Map
Tropical Storm Tracking
New forecast layout! Learn more

10-Day Weather Forecast

Advertisements
Track Severe Weather on mobile